Time;durP1;ratioP1;P1;durP2;ratioP2;P2;SDS_P1;SDS_P2;PMS_P1;PMS_P2;Temp;Humidity;BMP_temperature;BMP_pressure;BME280_temperature;BME280_humidity;BME280_pressure;Samples;Min_cycle;Max_cycle;Signal;HPM_P1;HPM_P2
2021/11/04 00:00:39;;;;;;;36.35;25.60;;;;;;;;;;2088747;28;20248;-64
2021/11/04 00:01:40;;;;;;;35.75;25.63;;;;;;;;;;2088315;28;20171;-64
2021/11/04 00:02:40;;;;;;;35.97;25.10;;;;;;;;;;2089876;28;20168;-64
2021/11/04 00:03:41;;;;;;;34.27;25.50;;;;;;;;;;2080718;28;20192;-61
2021/11/04 00:04:41;;;;;;;34.92;24.40;;;;;;;;;;2081160;28;20230;-66
2021/11/04 00:05:41;;;;;;;35.17;24.55;;;;;;;;;;2090007;28;20168;-64
2021/11/04 00:06:42;;;;;;;35.75;25.02;;;;;;;;;;2073253;28;20265;-64
2021/11/04 00:07:42;;;;;;;32.60;23.20;;;;;;;;;;2065292;28;20193;-64
2021/11/04 00:08:42;;;;;;;35.22;24.10;;;;;;;;;;2070965;28;20174;-66
2021/11/04 00:09:43;;;;;;;37.38;24.65;;;;;;;;;;2081232;28;20177;-62
2021/11/04 00:10:43;;;;;;;34.50;24.88;;;;;;;;;;2089775;28;20286;-64
2021/11/04 00:11:43;;;;;;;37.25;23.45;;;;;;;;;;2090995;28;20245;-64
2021/11/04 00:12:44;;;;;;;35.00;25.60;;;;;;;;;;2089032;28;20250;-63
2021/11/04 00:13:44;;;;;;;35.30;24.13;;;;;;;;;;2080988;28;20268;-60
2021/11/04 00:14:44;;;;;;;34.08;23.52;;;;;;;;;;2083623;28;20215;-65
2021/11/04 00:15:45;;;;;;;33.63;22.83;;;;;;;;;;2075069;28;20181;-64
2021/11/04 00:16:45;;;;;;;33.47;23.63;;;;;;;;;;2075916;28;20263;-64
2021/11/04 00:17:45;;;;;;;35.40;24.15;;;;;;;;;;2074544;28;20172;-64
2021/11/04 00:18:46;;;;;;;33.37;22.93;;;;;;;;;;2075172;28;20172;-63
2021/11/04 00:19:46;;;;;;;33.47;24.10;;;;;;;;;;2081479;28;20176;-64
2021/11/04 00:20:46;;;;;;;32.33;23.27;;;;;;;;;;2080450;28;20175;-64
2021/11/04 00:21:46;;;;;;;34.08;23.52;;;;;;;;;;2079136;28;20196;-63
2021/11/04 00:22:47;;;;;;;31.13;22.00;;;;;;;;;;2083107;28;20188;-62
2021/11/04 00:23:49;;;;;;;30.60;21.90;;;;;;;;;;2089996;28;20164;-64
2021/11/04 00:24:49;;;;;;;31.27;22.42;;;;;;;;;;2080622;28;20646;-63
2021/11/04 00:25:50;;;;;;;31.73;21.75;;;;;;;;;;2072267;28;20173;-66
2021/11/04 00:26:50;;;;;;;26.98;19.63;;;;;;;;;;2075640;28;20181;-63
2021/11/04 00:27:51;;;;;;;26.98;20.63;;;;;;;;;;2074330;28;20209;-60
2021/11/04 00:28:53;;;;;;;28.58;20.20;;;;;;;;;;2082787;28;20200;-63
2021/11/04 00:29:53;;;;;;;27.43;19.13;;;;;;;;;;2085154;28;20234;-61
2021/11/04 00:30:54;;;;;;;30.60;19.10;;;;;;;;;;2079420;28;20229;-65
2021/11/04 00:31:54;;;;;;;26.17;18.55;;;;;;;;;;2086124;28;20203;-62
2021/11/04 00:32:55;;;;;;;30.30;21.33;;;;;;;;;;2084829;28;20632;-64
2021/11/04 00:33:56;;;;;;;27.65;20.20;;;;;;;;;;2084070;28;20559;-62
2021/11/04 00:34:56;;;;;;;29.27;19.13;;;;;;;;;;2075760;28;20172;-62
2021/11/04 00:35:56;;;;;;;30.98;20.95;;;;;;;;;;2076972;28;20182;-61
2021/11/04 00:36:57;;;;;;;29.33;21.80;;;;;;;;;;2085539;28;20165;-65
2021/11/04 00:37:57;;;;;;;27.38;20.60;;;;;;;;;;2075611;28;20180;-63
2021/11/04 00:38:57;;;;;;;25.95;20.17;;;;;;;;;;2083500;28;20176;-61
2021/11/04 00:39:57;;;;;;;25.67;19.35;;;;;;;;;;2094405;28;20195;-63
2021/11/04 00:40:58;;;;;;;29.73;19.58;;;;;;;;;;2080968;28;20189;-64
2021/11/04 00:41:58;;;;;;;23.42;19.10;;;;;;;;;;2082814;28;20189;-66
2021/11/04 00:42:58;;;;;;;28.23;19.77;;;;;;;;;;2083466;28;20192;-63
2021/11/04 00:44:02;;;;;;;25.08;19.75;;;;;;;;;;2081055;28;20179;-62
2021/11/04 00:45:02;;;;;;;31.45;20.80;;;;;;;;;;2090145;28;20217;-65
2021/11/04 00:46:03;;;;;;;27.58;20.70;;;;;;;;;;2082067;28;20626;-63
2021/11/04 00:47:03;;;;;;;26.40;20.27;;;;;;;;;;2076651;28;20176;-64
2021/11/04 00:48:03;;;;;;;26.52;19.83;;;;;;;;;;2085238;28;20164;-64
2021/11/04 00:49:04;;;;;;;27.08;19.98;;;;;;;;;;2091898;28;20183;-63
2021/11/04 00:50:05;;;;;;;28.60;21.20;;;;;;;;;;2088217;28;20248;-64
2021/11/04 00:51:05;;;;;;;26.80;19.13;;;;;;;;;;2077502;28;20716;-64
2021/11/04 00:52:06;;;;;;;28.60;21.08;;;;;;;;;;2078557;28;20180;-64
2021/11/04 00:53:06;;;;;;;29.58;20.55;;;;;;;;;;2087420;28;20191;-63
2021/11/04 00:54:06;;;;;;;25.40;19.48;;;;;;;;;;2088699;28;20172;-64
2021/11/04 00:55:07;;;;;;;27.45;20.38;;;;;;;;;;2086278;28;20164;-63
2021/11/04 00:56:08;;;;;;;24.83;19.33;;;;;;;;;;2086636;28;20175;-63
2021/11/04 00:57:08;;;;;;;24.50;18.65;;;;;;;;;;2089916;28;20286;-61
2021/11/04 00:58:08;;;;;;;24.73;18.10;;;;;;;;;;2089841;28;20310;-64
2021/11/04 00:59:08;;;;;;;23.38;18.02;;;;;;;;;;2085873;28;20179;-63
2021/11/04 01:00:11;;;;;;;27.27;18.90;;;;;;;;;;2079387;28;20189;-61
2021/11/04 01:01:11;;;;;;;27.15;18.63;;;;;;;;;;2079959;28;20180;-63
2021/11/04 01:02:11;;;;;;;24.10;17.52;;;;;;;;;;2085882;28;20268;-62
2021/11/04 01:03:12;;;;;;;24.50;18.08;;;;;;;;;;2086432;28;20196;-63
2021/11/04 01:04:12;;;;;;;22.83;17.20;;;;;;;;;;2078207;28;20168;-64
2021/11/04 01:05:12;;;;;;;24.33;18.83;;;;;;;;;;2077672;28;20180;-63
2021/11/04 01:06:13;;;;;;;25.45;18.23;;;;;;;;;;2087406;28;20617;-64
2021/11/04 01:07:13;;;;;;;22.33;18.13;;;;;;;;;;2078798;28;20243;-62
2021/11/04 01:08:14;;;;;;;23.23;16.60;;;;;;;;;;2078990;28;20184;-62
2021/11/04 01:09:14;;;;;;;23.67;17.27;;;;;;;;;;2076777;28;20677;-63
2021/11/04 01:10:15;;;;;;;23.90;17.90;;;;;;;;;;2076978;28;20199;-60
2021/11/04 01:11:16;;;;;;;22.52;17.75;;;;;;;;;;2089003;28;20609;-61
2021/11/04 01:12:17;;;;;;;22.42;17.50;;;;;;;;;;2086548;28;20245;-63
2021/11/04 01:13:17;;;;;;;21.42;17.27;;;;;;;;;;2080404;28;20258;-64
2021/11/04 01:14:17;;;;;;;21.55;17.85;;;;;;;;;;2077017;28;20221;-61
2021/11/04 01:15:18;;;;;;;22.50;17.33;;;;;;;;;;2086214;28;20182;-63
2021/11/04 01:16:18;;;;;;;22.17;18.38;;;;;;;;;;2076075;28;20715;-64
2021/11/04 01:17:19;;;;;;;23.35;18.33;;;;;;;;;;2079811;28;20169;-63
2021/11/04 01:18:19;;;;;;;25.00;18.73;;;;;;;;;;2084755;28;20172;-64
2021/11/04 01:19:19;;;;;;;26.90;18.40;;;;;;;;;;2088648;28;20163;-63
2021/11/04 01:20:20;;;;;;;24.77;18.95;;;;;;;;;;2087435;28;20726;-61
2021/11/04 01:21:20;;;;;;;23.77;17.70;;;;;;;;;;2088890;28;20550;-62
2021/11/04 01:22:21;;;;;;;22.73;17.45;;;;;;;;;;2087081;28;20278;-65
2021/11/04 01:23:21;;;;;;;22.70;18.33;;;;;;;;;;2078100;28;20194;-64
2021/11/04 01:24:21;;;;;;;24.20;19.20;;;;;;;;;;2076512;28;20208;-62
2021/11/04 01:25:22;;;;;;;25.20;18.73;;;;;;;;;;2086873;28;20175;-63
2021/11/04 01:26:22;;;;;;;25.48;18.92;;;;;;;;;;2084807;28;20172;-61
2021/11/04 01:27:22;;;;;;;23.55;19.15;;;;;;;;;;2089999;28;20188;-63
2021/11/04 01:28:22;;;;;;;26.98;19.92;;;;;;;;;;2080792;28;20177;-62
2021/11/04 01:29:23;;;;;;;23.85;18.95;;;;;;;;;;2079056;28;20181;-60
2021/11/04 01:30:23;;;;;;;25.35;18.58;;;;;;;;;;2085155;28;20184;-62
2021/11/04 01:31:23;;;;;;;24.02;18.48;;;;;;;;;;2086910;28;20248;-64
2021/11/04 01:32:23;;;;;;;23.17;18.63;;;;;;;;;;2087760;28;20652;-65
2021/11/04 01:33:24;;;;;;;25.40;19.17;;;;;;;;;;2077927;28;20341;-64
2021/11/04 01:34:24;;;;;;;24.60;19.02;;;;;;;;;;2079503;28;20214;-61
2021/11/04 01:35:24;;;;;;;24.05;19.50;;;;;;;;;;2081715;28;20222;-62
2021/11/04 01:36:24;;;;;;;26.23;19.77;;;;;;;;;;2087758;28;20259;-64
2021/11/04 01:37:25;;;;;;;26.98;20.15;;;;;;;;;;2085350;28;20172;-59
2021/11/04 01:38:25;;;;;;;26.55;19.52;;;;;;;;;;2089447;28;20171;-60
2021/11/04 01:39:25;;;;;;;28.23;21.27;;;;;;;;;;2087679;28;20173;-64
2021/11/04 01:40:26;;;;;;;27.65;20.63;;;;;;;;;;2086103;28;20554;-64
2021/11/04 01:41:26;;;;;;;32.35;22.02;;;;;;;;;;2085066;28;20219;-64
2021/11/04 01:42:26;;;;;;;30.42;21.85;;;;;;;;;;2086299;28;20230;-62
2021/11/04 01:43:28;;;;;;;29.17;20.80;;;;;;;;;;2086602;28;20546;-60
2021/11/04 01:44:28;;;;;;;31.67;22.77;;;;;;;;;;2079744;28;20180;-62
2021/11/04 01:45:29;;;;;;;28.38;22.42;;;;;;;;;;2077879;28;20549;-64
2021/11/04 01:46:29;;;;;;;31.33;22.30;;;;;;;;;;2086445;28;20193;-63
2021/11/04 01:47:29;;;;;;;34.20;24.52;;;;;;;;;;2085606;28;20641;-60
2021/11/04 01:48:29;;;;;;;33.25;23.45;;;;;;;;;;2084709;28;20183;-58
2021/11/04 01:49:30;;;;;;;29.13;22.65;;;;;;;;;;2069110;28;20193;-61
2021/11/04 01:50:31;;;;;;;33.50;23.70;;;;;;;;;;2068212;28;20173;-60
2021/11/04 01:51:31;;;;;;;32.28;23.70;;;;;;;;;;2087372;28;20203;-59
2021/11/04 01:52:31;;;;;;;33.50;24.40;;;;;;;;;;2087800;28;20167;-62
2021/11/04 01:53:32;;;;;;;32.35;23.58;;;;;;;;;;2087263;28;20203;-60
2021/11/04 01:54:32;;;;;;;40.42;27.23;;;;;;;;;;2079118;28;20583;-60
2021/11/04 01:55:32;;;;;;;35.45;25.98;;;;;;;;;;2078977;28;20643;-61
2021/11/04 01:56:36;;;;;;;35.13;25.00;;;;;;;;;;2083854;28;20215;-63
2021/11/04 01:57:36;;;;;;;39.05;25.58;;;;;;;;;;2087132;28;20164;-60
2021/11/04 01:58:36;;;;;;;38.13;26.80;;;;;;;;;;2087183;28;20184;-63
2021/11/04 01:59:37;;;;;;;36.30;26.27;;;;;;;;;;2085894;28;20200;-61
2021/11/04 02:00:37;;;;;;;35.67;26.60;;;;;;;;;;2088750;28;20309;-64
2021/11/04 02:01:37;;;;;;;36.53;25.98;;;;;;;;;;2086269;28;20187;-65
2021/11/04 02:02:45;;;;;;;40.15;27.45;;;;;;;;;;2086918;28;20221;-64
2021/11/04 02:04:01;;;;;;;40.10;27.65;;;;;;;;;;2086499;28;20191;-63
2021/11/04 02:05:03;;;;;;;37.22;27.58;;;;;;;;;;2087271;28;20248;-62
2021/11/04 02:06:09;;;;;;;35.97;27.87;;;;;;;;;;2086676;28;20276;-64
2021/11/04 02:07:13;;;;;;;38.78;27.30;;;;;;;;;;2087444;28;20559;-62
2021/11/04 02:08:17;;;;;;;39.25;28.77;;;;;;;;;;2078262;28;20648;-63
2021/11/04 02:09:23;;;;;;;40.50;28.65;;;;;;;;;;2078250;28;20215;-64
2021/11/04 02:10:43;;;;;;;44.47;29.50;;;;;;;;;;2086215;28;20271;-62
2021/11/04 02:11:51;;;;;;;39.30;29.25;;;;;;;;;;2086384;28;20626;-60
2021/11/04 02:12:57;;;;;;;39.10;28.23;;;;;;;;;;2084106;28;20187;-61
2021/11/04 02:13:59;;;;;;;38.97;28.07;;;;;;;;;;2077404;28;20172;-59
2021/11/04 02:14:59;;;;;;;40.37;28.67;;;;;;;;;;2079783;28;20279;-63
2021/11/04 02:16:01;;;;;;;39.22;29.08;;;;;;;;;;2087866;28;20253;-62
2021/11/04 02:17:02;;;;;;;43.00;29.02;;;;;;;;;;2084561;28;20180;-62
2021/11/04 02:18:07;;;;;;;42.55;28.88;;;;;;;;;;2087194;28;20180;-63
2021/11/04 02:19:14;;;;;;;40.28;28.80;;;;;;;;;;2085915;28;20673;-62
2021/11/04 02:20:19;;;;;;;43.25;28.55;;;;;;;;;;2086968;28;20633;-65
2021/11/04 02:21:25;;;;;;;42.10;28.63;;;;;;;;;;2087723;28;20687;-63
2021/11/04 02:22:25;;;;;;;44.33;30.40;;;;;;;;;;2088520;28;20165;-56
2021/11/04 02:23:39;;;;;;;45.72;30.80;;;;;;;;;;2088997;28;20743;-61
2021/11/04 02:24:40;;;;;;;43.40;29.65;;;;;;;;;;2084980;28;20183;-61
2021/11/04 02:25:40;;;;;;;40.90;29.20;;;;;;;;;;2081899;28;20175;-60
2021/11/04 02:26:42;;;;;;;43.20;30.95;;;;;;;;;;2079683;28;20247;-65
2021/11/04 02:27:43;;;;;;;49.40;31.30;;;;;;;;;;2083113;28;20212;-62
2021/11/04 02:28:44;;;;;;;48.15;31.80;;;;;;;;;;2085978;28;20185;-62
2021/11/04 02:29:44;;;;;;;45.35;32.30;;;;;;;;;;2093830;28;20588;-59
2021/11/04 02:30:45;;;;;;;47.38;29.70;;;;;;;;;;2094979;28;20180;-62
2021/11/04 02:31:47;;;;;;;47.33;32.17;;;;;;;;;;2092305;28;20200;-61
2021/11/04 02:32:49;;;;;;;42.55;28.90;;;;;;;;;;2077654;28;20175;-60
2021/11/04 02:33:49;;;;;;;41.63;29.37;;;;;;;;;;2077605;28;20225;-62
2021/11/04 02:34:50;;;;;;;47.13;31.25;;;;;;;;;;2078228;28;20173;-60
2021/11/04 02:35:52;;;;;;;42.47;29.87;;;;;;;;;;2086525;28;20164;-61
2021/11/04 02:36:53;;;;;;;38.80;28.92;;;;;;;;;;2088016;28;20171;-60
2021/11/04 02:37:54;;;;;;;42.83;29.30;;;;;;;;;;2086563;28;20593;-61
2021/11/04 02:38:55;;;;;;;44.20;29.75;;;;;;;;;;2085725;28;20184;-57
2021/11/04 02:39:55;;;;;;;44.78;29.05;;;;;;;;;;2086780;28;20543;-61
2021/11/04 02:40:56;;;;;;;42.35;29.67;;;;;;;;;;2069084;28;20763;-62
2021/11/04 02:41:56;;;;;;;42.47;29.70;;;;;;;;;;2071949;28;20208;-60
2021/11/04 02:42:56;;;;;;;42.75;29.58;;;;;;;;;;2084834;28;20176;-61
2021/11/04 02:43:57;;;;;;;43.58;28.50;;;;;;;;;;2077656;28;20272;-59
2021/11/04 02:44:58;;;;;;;42.25;29.08;;;;;;;;;;2075887;28;20169;-63
2021/11/04 02:45:59;;;;;;;43.33;29.83;;;;;;;;;;2086762;28;20181;-62
2021/11/04 02:46:59;;;;;;;40.07;29.13;;;;;;;;;;2084482;28;20176;-61
2021/11/04 02:48:00;;;;;;;42.42;30.55;;;;;;;;;;2084777;28;20214;-62
2021/11/04 02:49:01;;;;;;;38.97;29.40;;;;;;;;;;2087003;28;20541;-62
2021/11/04 02:50:01;;;;;;;40.20;29.40;;;;;;;;;;2086871;28;20175;-60
2021/11/04 02:51:02;;;;;;;36.40;28.37;;;;;;;;;;2086507;28;20163;-61
2021/11/04 02:52:03;;;;;;;35.47;27.45;;;;;;;;;;2085657;28;20207;-59
2021/11/04 02:53:03;;;;;;;39.70;28.15;;;;;;;;;;2088081;28;20230;-61
2021/11/04 02:54:06;;;;;;;35.97;27.05;;;;;;;;;;2075273;28;20607;-61
2021/11/04 02:55:06;;;;;;;35.65;26.73;;;;;;;;;;2076541;28;20551;-62
2021/11/04 02:56:07;;;;;;;38.58;28.27;;;;;;;;;;2084718;28;20175;-60
2021/11/04 02:57:07;;;;;;;42.25;28.10;;;;;;;;;;2076972;28;20259;-63
2021/11/04 02:58:08;;;;;;;41.00;28.30;;;;;;;;;;2077850;28;20712;-61
2021/11/04 02:59:10;;;;;;;37.05;26.63;;;;;;;;;;2079430;28;20187;-62
2021/11/04 03:00:12;;;;;;;40.78;26.52;;;;;;;;;;2079288;28;20196;-64
2021/11/04 03:01:12;;;;;;;38.25;26.67;;;;;;;;;;2081121;28;20164;-62
2021/11/04 03:02:12;;;;;;;38.45;28.17;;;;;;;;;;2087977;28;20176;-62
2021/11/04 03:03:12;;;;;;;37.87;28.40;;;;;;;;;;2085274;28;20274;-63
2021/11/04 03:04:14;;;;;;;37.05;27.65;;;;;;;;;;2076002;28;20195;-63
2021/11/04 03:05:14;;;;;;;38.58;28.15;;;;;;;;;;2077746;28;20176;-63
2021/11/04 03:06:15;;;;;;;41.10;28.60;;;;;;;;;;2085824;28;20528;-61
2021/11/04 03:07:16;;;;;;;37.97;27.85;;;;;;;;;;2086285;28;20190;-60
2021/11/04 03:08:16;;;;;;;38.97;26.87;;;;;;;;;;2084933;28;20245;-61
2021/11/04 03:09:17;;;;;;;34.65;26.35;;;;;;;;;;2078884;28;20676;-61
2021/11/04 03:10:20;;;;;;;44.55;28.75;;;;;;;;;;2077738;28;20200;-63
2021/11/04 03:11:20;;;;;;;36.05;26.50;;;;;;;;;;2077469;28;20199;-64
2021/11/04 03:12:21;;;;;;;38.63;27.33;;;;;;;;;;2078925;28;20256;-58
2021/11/04 03:13:21;;;;;;;39.05;28.58;;;;;;;;;;2079865;28;20196;-61
2021/11/04 03:14:21;;;;;;;38.53;28.48;;;;;;;;;;2070011;28;20197;-58
2021/11/04 03:15:22;;;;;;;39.63;27.60;;;;;;;;;;2078663;28;20164;-63
2021/11/04 03:16:23;;;;;;;39.40;27.87;;;;;;;;;;2080086;28;20247;-63
2021/11/04 03:17:25;;;;;;;42.10;28.77;;;;;;;;;;2075103;28;20205;-64
2021/11/04 03:18:26;;;;;;;37.40;27.85;;;;;;;;;;2087779;28;20654;-65
2021/11/04 03:19:27;;;;;;;36.50;27.67;;;;;;;;;;2088578;28;20175;-61
2021/11/04 03:20:29;;;;;;;39.20;27.38;;;;;;;;;;2077707;28;20176;-62
2021/11/04 03:21:30;;;;;;;37.72;27.92;;;;;;;;;;2076615;28;20207;-62
2021/11/04 03:22:31;;;;;;;41.78;28.42;;;;;;;;;;2086623;28;20175;-60
2021/11/04 03:23:31;;;;;;;39.22;28.15;;;;;;;;;;2086741;28;20202;-60
2021/11/04 03:24:32;;;;;;;39.30;29.02;;;;;;;;;;2087033;28;20186;-61
2021/11/04 03:25:33;;;;;;;37.38;26.75;;;;;;;;;;2086656;28;20207;-63
2021/11/04 03:26:38;;;;;;;39.03;27.17;;;;;;;;;;2086210;28;20258;-61
2021/11/04 03:27:39;;;;;;;38.08;27.08;;;;;;;;;;2085462;28;20271;-62
2021/11/04 03:28:41;;;;;;;37.28;27.38;;;;;;;;;;2086108;28;20187;-64
2021/11/04 03:29:42;;;;;;;38.33;28.15;;;;;;;;;;2085940;28;20199;-63
2021/11/04 03:30:43;;;;;;;36.67;27.55;;;;;;;;;;2087827;28;20244;-61
2021/11/04 03:31:44;;;;;;;42.22;28.13;;;;;;;;;;2087421;28;20425;-63
2021/11/04 03:32:44;;;;;;;42.75;29.10;;;;;;;;;;2084625;28;20188;-61
2021/11/04 03:33:45;;;;;;;39.85;27.67;;;;;;;;;;2101500;22;20251;-57
2021/11/04 03:34:46;;;;;;;37.15;27.02;;;;;;;;;;2095551;28;20194;-54
2021/11/04 03:35:47;;;;;;;37.92;26.83;;;;;;;;;;2093642;28;20682;-55
2021/11/04 03:36:49;;;;;;;37.80;27.42;;;;;;;;;;2085955;28;20719;-57
2021/11/04 03:37:50;;;;;;;39.10;28.27;;;;;;;;;;2076694;28;20186;-57
2021/11/04 03:38:51;;;;;;;37.55;26.58;;;;;;;;;;2084585;28;20254;-55
2021/11/04 03:39:52;;;;;;;41.90;27.85;;;;;;;;;;2085946;28;20180;-56
2021/11/04 03:40:55;;;;;;;34.95;26.63;;;;;;;;;;2086546;28;20187;-57
2021/11/04 03:41:56;;;;;;;38.72;27.75;;;;;;;;;;2097157;28;20556;-57
2021/11/04 03:42:57;;;;;;;38.88;27.95;;;;;;;;;;2097433;28;20183;-57
2021/11/04 03:43:58;;;;;;;40.00;28.17;;;;;;;;;;2096195;28;20197;-58
2021/11/04 03:44:58;;;;;;;41.20;29.08;;;;;;;;;;2094725;28;20178;-54
2021/11/04 03:45:59;;;;;;;35.70;26.20;;;;;;;;;;2095097;28;20211;-57
2021/11/04 03:47:01;;;;;;;35.70;27.52;;;;;;;;;;2095013;28;20175;-54
2021/11/04 03:48:02;;;;;;;38.93;28.50;;;;;;;;;;2090511;28;20586;-57
2021/11/04 03:49:03;;;;;;;42.20;27.37;;;;;;;;;;2094742;28;20186;-55
2021/11/04 03:50:04;;;;;;;35.95;26.08;;;;;;;;;;2092595;28;20199;-56
2021/11/04 03:51:04;;;;;;;37.65;24.75;;;;;;;;;;2093961;28;20183;-57
2021/11/04 03:52:05;;;;;;;36.53;26.60;;;;;;;;;;2094158;28;20567;-57
2021/11/04 03:53:06;;;;;;;37.03;25.90;;;;;;;;;;2094514;28;20175;-56
2021/11/04 03:54:06;;;;;;;35.90;26.75;;;;;;;;;;2095918;28;20202;-57
2021/11/04 03:55:08;;;;;;;36.88;25.83;;;;;;;;;;2094815;28;20222;-57
2021/11/04 03:56:08;;;;;;;35.25;25.10;;;;;;;;;;2094442;28;20659;-57
2021/11/04 03:57:08;;;;;;;36.72;25.40;;;;;;;;;;2095023;28;20229;-57
2021/11/04 03:58:09;;;;;;;33.38;25.10;;;;;;;;;;2093159;28;20629;-56
2021/11/04 03:59:09;;;;;;;32.47;24.88;;;;;;;;;;2083893;28;20218;-57
2021/11/04 04:00:10;;;;;;;32.35;25.45;;;;;;;;;;2084218;28;20668;-58
2021/11/04 04:01:10;;;;;;;36.70;25.70;;;;;;;;;;2094662;28;20193;-56
2021/11/04 04:02:11;;;;;;;33.50;24.63;;;;;;;;;;2095854;28;20163;-56
2021/11/04 04:03:12;;;;;;;37.35;26.75;;;;;;;;;;2094062;28;20201;-58
2021/11/04 04:04:12;;;;;;;34.90;24.90;;;;;;;;;;2092562;28;20191;-58
2021/11/04 04:05:13;;;;;;;34.77;25.83;;;;;;;;;;2083426;28;20613;-55
2021/11/04 04:06:13;;;;;;;36.30;25.50;;;;;;;;;;2086740;28;20537;-56
2021/11/04 04:07:14;;;;;;;35.03;25.98;;;;;;;;;;2086046;28;20231;-57
2021/11/04 04:08:14;;;;;;;31.83;24.33;;;;;;;;;;2085302;28;20187;-54
2021/11/04 04:09:14;;;;;;;32.65;24.67;;;;;;;;;;2093036;28;20195;-57
2021/11/04 04:10:14;;;;;;;33.03;25.02;;;;;;;;;;2094644;28;20270;-56
2021/11/04 04:11:15;;;;;;;37.85;26.20;;;;;;;;;;2093633;28;20186;-57
2021/11/04 04:12:17;;;;;;;37.97;27.27;;;;;;;;;;2095691;28;20250;-55
2021/11/04 04:13:18;;;;;;;37.50;25.53;;;;;;;;;;2093127;28;20178;-55
2021/11/04 04:14:18;;;;;;;37.42;26.55;;;;;;;;;;2095276;28;20162;-57
2021/11/04 04:15:19;;;;;;;35.75;27.58;;;;;;;;;;2084287;28;20264;-54
2021/11/04 04:16:20;;;;;;;35.13;25.35;;;;;;;;;;2079435;28;20214;-58
2021/11/04 04:17:21;;;;;;;36.15;26.17;;;;;;;;;;2079810;28;20686;-57
2021/11/04 04:18:22;;;;;;;33.97;25.98;;;;;;;;;;2078458;28;20172;-57
2021/11/04 04:19:22;;;;;;;38.35;26.48;;;;;;;;;;2087780;28;20209;-57
2021/11/04 04:20:23;;;;;;;32.53;26.40;;;;;;;;;;2092684;28;20162;-57
2021/11/04 04:21:23;;;;;;;35.17;26.77;;;;;;;;;;2094136;28;20177;-56
2021/11/04 04:22:23;;;;;;;35.65;25.95;;;;;;;;;;2093803;28;20202;-57
2021/11/04 04:23:24;;;;;;;35.67;27.08;;;;;;;;;;2092843;28;20188;-58
2021/11/04 04:24:24;;;;;;;37.35;25.90;;;;;;;;;;2093099;28;20215;-58
2021/11/04 04:25:24;;;;;;;34.63;25.77;;;;;;;;;;2088343;28;20217;-57
2021/11/04 04:26:25;;;;;;;41.15;26.27;;;;;;;;;;2086799;28;20164;-56
2021/11/04 04:27:25;;;;;;;37.90;27.08;;;;;;;;;;2085979;28;20171;-58
2021/11/04 04:28:26;;;;;;;35.38;27.45;;;;;;;;;;2086765;28;20176;-57
2021/11/04 04:29:26;;;;;;;37.10;27.17;;;;;;;;;;2092773;28;20167;-57
2021/11/04 04:30:27;;;;;;;38.67;27.65;;;;;;;;;;2095354;28;20170;-57
2021/11/04 04:31:27;;;;;;;40.95;28.42;;;;;;;;;;2093846;28;20210;-57
2021/11/04 04:32:27;;;;;;;39.70;28.20;;;;;;;;;;2094839;28;20162;-57
2021/11/04 04:33:28;;;;;;;42.97;29.10;;;;;;;;;;2075743;28;20356;-57
2021/11/04 04:34:28;;;;;;;38.92;28.08;;;;;;;;;;2080316;28;20177;-57
2021/11/04 04:35:29;;;;;;;40.42;26.80;;;;;;;;;;2084616;28;20244;-58
2021/11/04 04:36:29;;;;;;;38.28;27.80;;;;;;;;;;2083866;28;20181;-57
2021/11/04 04:37:30;;;;;;;42.08;29.33;;;;;;;;;;2092685;28;20159;-57
2021/11/04 04:38:30;;;;;;;41.17;30.02;;;;;;;;;;2092588;28;20239;-56
2021/11/04 04:39:33;;;;;;;41.80;29.92;;;;;;;;;;2095478;28;20228;-55
2021/11/04 04:40:33;;;;;;;43.15;29.48;;;;;;;;;;2094425;28;20167;-57
2021/11/04 04:41:33;;;;;;;44.17;28.02;;;;;;;;;;2096276;28;20164;-57
2021/11/04 04:42:33;;;;;;;40.88;27.98;;;;;;;;;;2084776;28;20183;-56
2021/11/04 04:43:34;;;;;;;39.85;28.65;;;;;;;;;;2076476;28;20180;-56
2021/11/04 04:44:35;;;;;;;38.55;28.50;;;;;;;;;;2075753;28;20734;-55
2021/11/04 04:45:35;;;;;;;42.08;30.85;;;;;;;;;;2084201;28;20176;-57
2021/11/04 04:46:35;;;;;;;40.78;29.20;;;;;;;;;;2085935;28;20553;-58
2021/11/04 04:47:36;;;;;;;45.70;31.50;;;;;;;;;;2077746;28;20244;-57
2021/11/04 04:48:36;;;;;;;43.28;31.27;;;;;;;;;;2087994;28;20179;-57
2021/11/04 04:49:37;;;;;;;46.30;32.47;;;;;;;;;;2095153;28;20170;-57
2021/11/04 04:50:38;;;;;;;52.50;33.22;;;;;;;;;;2093655;28;20202;-55
2021/11/04 04:51:38;;;;;;;49.85;32.38;;;;;;;;;;2091836;28;20274;-57
2021/11/04 04:52:41;;;;;;;50.28;34.05;;;;;;;;;;2095605;28;20244;-56
2021/11/04 04:53:41;;;;;;;45.92;31.77;;;;;;;;;;2093118;28;20274;-56
2021/11/04 04:54:41;;;;;;;51.97;34.20;;;;;;;;;;2094771;28;20176;-58
2021/11/04 04:55:42;;;;;;;49.20;33.35;;;;;;;;;;2085447;28;20164;-58
2021/11/04 04:56:42;;;;;;;46.95;33.20;;;;;;;;;;2082774;28;20255;-57
2021/11/04 04:57:42;;;;;;;50.70;34.95;;;;;;;;;;2093819;28;20249;-54
2021/11/04 04:58:43;;;;;;;52.75;36.55;;;;;;;;;;2095821;28;20572;-56
2021/11/04 04:59:43;;;;;;;55.45;36.65;;;;;;;;;;2083619;28;20540;-54
2021/11/04 05:00:43;;;;;;;59.72;38.35;;;;;;;;;;2083793;28;20211;-57
2021/11/04 05:01:43;;;;;;;58.53;38.10;;;;;;;;;;2085040;28;20335;-56
2021/11/04 05:02:44;;;;;;;55.40;37.22;;;;;;;;;;2085817;28;20183;-54
2021/11/04 05:03:45;;;;;;;58.70;37.43;;;;;;;;;;2094397;28;20574;-58
2021/11/04 05:04:45;;;;;;;62.05;37.90;;;;;;;;;;2094301;28;20175;-54
2021/11/04 05:05:45;;;;;;;63.53;39.22;;;;;;;;;;2093362;28;20655;-57
2021/11/04 05:06:46;;;;;;;59.42;36.83;;;;;;;;;;2093728;28;20175;-58
2021/11/04 05:07:46;;;;;;;58.90;37.42;;;;;;;;;;2092652;28;20168;-57
2021/11/04 05:08:46;;;;;;;59.25;37.83;;;;;;;;;;2092136;28;20223;-59
2021/11/04 05:09:46;;;;;;;69.40;40.63;;;;;;;;;;2103170;28;20203;-58
2021/11/04 05:10:47;;;;;;;58.90;37.65;;;;;;;;;;2097184;28;20177;-57
2021/11/04 05:11:47;;;;;;;67.05;40.38;;;;;;;;;;2095511;28;20203;-58
2021/11/04 05:12:47;;;;;;;63.97;40.38;;;;;;;;;;2094616;28;20935;-58
2021/11/04 05:13:48;;;;;;;63.90;40.60;;;;;;;;;;2094706;28;20198;-57
2021/11/04 05:14:48;;;;;;;66.82;41.35;;;;;;;;;;2094134;28;20171;-57
2021/11/04 05:15:48;;;;;;;59.75;38.78;;;;;;;;;;2094129;28;20160;-54
2021/11/04 05:16:48;;;;;;;69.50;39.10;;;;;;;;;;2092218;28;20167;-54
2021/11/04 05:17:49;;;;;;;68.00;40.60;;;;;;;;;;2095489;28;20647;-56
2021/11/04 05:18:49;;;;;;;65.75;40.20;;;;;;;;;;2084368;28;20171;-56
2021/11/04 05:19:49;;;;;;;67.40;40.55;;;;;;;;;;2086822;28;20171;-56
2021/11/04 05:20:50;;;;;;;66.13;40.55;;;;;;;;;;2093792;28;20202;-57
2021/11/04 05:21:50;;;;;;;70.63;43.33;;;;;;;;;;2094385;28;20569;-56
2021/11/04 05:22:50;;;;;;;67.47;41.25;;;;;;;;;;2098218;28;20171;-55
2021/11/04 05:23:50;;;;;;;59.00;40.47;;;;;;;;;;2086646;28;20192;-57
2021/11/04 05:24:50;;;;;;;63.17;38.92;;;;;;;;;;2087161;28;20266;-58
2021/11/04 05:25:51;;;;;;;61.92;40.70;;;;;;;;;;2095832;28;20179;-58
2021/11/04 05:26:51;;;;;;;61.83;38.67;;;;;;;;;;2096149;28;20225;-57
2021/11/04 05:27:51;;;;;;;70.53;42.70;;;;;;;;;;2093616;28;20267;-55
2021/11/04 05:28:51;;;;;;;65.68;39.38;;;;;;;;;;2093688;28;20551;-56
2021/11/04 05:29:52;;;;;;;61.05;38.13;;;;;;;;;;2093530;28;20175;-57
2021/11/04 05:30:53;;;;;;;63.92;38.63;;;;;;;;;;2103449;28;20167;-57
2021/11/04 05:31:53;;;;;;;61.08;37.40;;;;;;;;;;2101815;28;20250;-56
2021/11/04 05:32:53;;;;;;;58.80;38.53;;;;;;;;;;2090875;28;20167;-57
2021/11/04 05:33:54;;;;;;;57.97;37.25;;;;;;;;;;2088053;28;20192;-55
2021/11/04 05:34:54;;;;;;;61.90;39.35;;;;;;;;;;2093533;28;20179;-54
2021/11/04 05:35:54;;;;;;;65.53;39.67;;;;;;;;;;2095879;28;20601;-55
2021/11/04 05:36:54;;;;;;;59.67;38.05;;;;;;;;;;2093787;28;20545;-54
2021/11/04 05:37:55;;;;;;;67.78;39.28;;;;;;;;;;2095866;28;20167;-53
2021/11/04 05:38:55;;;;;;;64.40;38.97;;;;;;;;;;2085391;28;20649;-53
2021/11/04 05:39:55;;;;;;;62.70;39.35;;;;;;;;;;2084875;28;20270;-56
2021/11/04 05:40:56;;;;;;;59.65;37.65;;;;;;;;;;2093545;28;20172;-56
2021/11/04 05:41:56;;;;;;;61.05;36.95;;;;;;;;;;2095013;28;20175;-52
2021/11/04 05:42:56;;;;;;;64.63;39.63;;;;;;;;;;2096015;28;20558;-55
2021/11/04 05:43:57;;;;;;;66.88;39.53;;;;;;;;;;2094682;28;20554;-57
2021/11/04 05:44:57;;;;;;;63.10;38.60;;;;;;;;;;2093949;28;20175;-57
2021/11/04 05:45:57;;;;;;;64.28;37.95;;;;;;;;;;2095198;28;20163;-55
2021/11/04 05:46:58;;;;;;;63.33;37.67;;;;;;;;;;2094090;28;20619;-56
2021/11/04 05:47:58;;;;;;;59.55;36.30;;;;;;;;;;2094306;28;20211;-56
2021/11/04 05:48:58;;;;;;;64.32;37.42;;;;;;;;;;2088463;28;20188;-53
2021/11/04 05:49:58;;;;;;;62.28;37.40;;;;;;;;;;2087072;28;20263;-57
2021/11/04 05:50:59;;;;;;;67.28;38.67;;;;;;;;;;2095737;28;20179;-57
2021/11/04 05:51:59;;;;;;;65.53;40.80;;;;;;;;;;2085704;28;20196;-56
2021/11/04 05:53:00;;;;;;;64.18;38.50;;;;;;;;;;2085191;28;20177;-57
2021/11/04 05:54:00;;;;;;;69.10;40.55;;;;;;;;;;2094673;28;20266;-56